sensor_id;sensor_type;location;lat;lon;timestamp;temperature;humidity
24450;DHT22;13349;50.984;5.822;2023-04-03T00:01:36;0.90;99.90
24450;DHT22;13349;50.984;5.822;2023-04-03T00:04:04;0.80;1.00
24450;DHT22;13349;50.984;5.822;2023-04-03T00:06:31;0.90;1.00
24450;DHT22;13349;50.984;5.822;2023-04-03T00:08:58;0.80;99.90
24450;DHT22;13349;50.984;5.822;2023-04-03T00:11:25;0.80;1.00
24450;DHT22;13349;50.984;5.822;2023-04-03T00:13:51;0.80;1.00
24450;DHT22;13349;50.984;5.822;2023-04-03T00:16:18;0.70;1.00
24450;DHT22;13349;50.984;5.822;2023-04-03T00:18:47;0.70;99.90
24450;DHT22;13349;50.984;5.822;2023-04-03T00:21:14;0.60;1.00
24450;DHT22;13349;50.984;5.822;2023-04-03T00:23:40;0.60;1.00
24450;DHT22;13349;50.984;5.822;2023-04-03T00:26:07;0.70;99.90
24450;DHT22;13349;50.984;5.822;2023-04-03T00:28:34;0.70;1.00
24450;DHT22;13349;50.984;5.822;2023-04-03T00:31:01;0.70;1.00
24450;DHT22;13349;50.984;5.822;2023-04-03T00:33:28;0.60;1.00
24450;DHT22;13349;50.984;5.822;2023-04-03T00:35:56;0.50;1.00
24450;DHT22;13349;50.984;5.822;2023-04-03T00:38:23;0.50;37.80
24450;DHT22;13349;50.984;5.822;2023-04-03T00:40:50;0.50;99.90
24450;DHT22;13349;50.984;5.822;2023-04-03T00:43:18;0.50;99.90
24450;DHT22;13349;50.984;5.822;2023-04-03T00:45:46;0.60;99.90
24450;DHT22;13349;50.984;5.822;2023-04-03T00:48:14;0.60;99.90
24450;DHT22;13349;50.984;5.822;2023-04-03T00:50:42;0.60;99.90
24450;DHT22;13349;50.984;5.822;2023-04-03T00:53:11;0.60;99.90
24450;DHT22;13349;50.984;5.822;2023-04-03T00:55:39;0.60;99.90
24450;DHT22;13349;50.984;5.822;2023-04-03T00:58:06;0.70;99.90
24450;DHT22;13349;50.984;5.822;2023-04-03T01:00:33;0.70;99.90
24450;DHT22;13349;50.984;5.822;2023-04-03T01:03:00;0.70;99.90
24450;DHT22;13349;50.984;5.822;2023-04-03T01:05:27;0.60;99.90
24450;DHT22;13349;50.984;5.822;2023-04-03T01:07:54;0.60;99.90
24450;DHT22;13349;50.984;5.822;2023-04-03T01:10:22;0.50;99.90
24450;DHT22;13349;50.984;5.822;2023-04-03T01:12:51;0.40;99.90
24450;DHT22;13349;50.984;5.822;2023-04-03T01:15:18;0.40;99.90
24450;DHT22;13349;50.984;5.822;2023-04-03T01:17:47;0.30;99.90
24450;DHT22;13349;50.984;5.822;2023-04-03T01:22:57;0.10;99.90
24450;DHT22;13349;50.984;5.822;2023-04-03T01:25:27;0.10;99.90
24450;DHT22;13349;50.984;5.822;2023-04-03T01:27:54;0.00;99.90
24450;DHT22;13349;50.984;5.822;2023-04-03T01:30:21;0.00;99.90
24450;DHT22;13349;50.984;5.822;2023-04-03T01:32:51;-0.10;99.90
24450;DHT22;13349;50.984;5.822;2023-04-03T01:35:18;-0.20;99.90
24450;DHT22;13349;50.984;5.822;2023-04-03T01:37:45;-0.20;99.90
24450;DHT22;13349;50.984;5.822;2023-04-03T01:40:12;-0.30;99.90
24450;DHT22;13349;50.984;5.822;2023-04-03T01:42:39;-0.30;99.90
24450;DHT22;13349;50.984;5.822;2023-04-03T01:45:06;-0.30;99.90
24450;DHT22;13349;50.984;5.822;2023-04-03T01:47:33;-0.40;99.90
24450;DHT22;13349;50.984;5.822;2023-04-03T01:50:02;-0.30;99.90
24450;DHT22;13349;50.984;5.822;2023-04-03T01:52:29;-0.30;99.90
24450;DHT22;13349;50.984;5.822;2023-04-03T01:54:56;-0.30;99.90
24450;DHT22;13349;50.984;5.822;2023-04-03T01:57:22;-0.30;99.90
24450;DHT22;13349;50.984;5.822;2023-04-03T01:59:49;-0.20;99.90
24450;DHT22;13349;50.984;5.822;2023-04-03T02:02:16;-0.40;99.90
24450;DHT22;13349;50.984;5.822;2023-04-03T02:04:44;-0.50;99.90
24450;DHT22;13349;50.984;5.822;2023-04-03T02:07:13;-0.40;99.90
24450;DHT22;13349;50.984;5.822;2023-04-03T02:09:40;-0.40;99.90
24450;DHT22;13349;50.984;5.822;2023-04-03T02:12:07;-0.40;99.90
24450;DHT22;13349;50.984;5.822;2023-04-03T02:14:33;-0.40;99.90
24450;DHT22;13349;50.984;5.822;2023-04-03T02:17:00;-0.50;99.90
24450;DHT22;13349;50.984;5.822;2023-04-03T02:19:30;-0.50;99.90
24450;DHT22;13349;50.984;5.822;2023-04-03T02:21:57;-0.70;99.90
24450;DHT22;13349;50.984;5.822;2023-04-03T02:24:25;-0.70;99.90
24450;DHT22;13349;50.984;5.822;2023-04-03T02:26:52;-0.60;99.90
24450;DHT22;13349;50.984;5.822;2023-04-03T02:29:20;-0.60;99.90
24450;DHT22;13349;50.984;5.822;2023-04-03T02:31:47;-0.70;99.90
24450;DHT22;13349;50.984;5.822;2023-04-03T02:34:14;-0.70;99.90
24450;DHT22;13349;50.984;5.822;2023-04-03T02:36:41;-0.70;99.90
24450;DHT22;13349;50.984;5.822;2023-04-03T02:39:07;-0.70;99.90
24450;DHT22;13349;50.984;5.822;2023-04-03T02:41:36;-0.60;99.90
24450;DHT22;13349;50.984;5.822;2023-04-03T02:44:03;-0.60;99.90
24450;DHT22;13349;50.984;5.822;2023-04-03T02:46:30;-0.60;99.90
24450;DHT22;13349;50.984;5.822;2023-04-03T02:48:57;-0.50;99.90
24450;DHT22;13349;50.984;5.822;2023-04-03T02:51:24;-0.40;99.90
24450;DHT22;13349;50.984;5.822;2023-04-03T02:53:51;-0.40;99.90
24450;DHT22;13349;50.984;5.822;2023-04-03T02:56:18;-0.40;99.90
24450;DHT22;13349;50.984;5.822;2023-04-03T02:58:47;-0.40;99.90
24450;DHT22;13349;50.984;5.822;2023-04-03T03:01:13;-0.30;99.90
24450;DHT22;13349;50.984;5.822;2023-04-03T03:03:40;-0.30;99.90
24450;DHT22;13349;50.984;5.822;2023-04-03T03:06:08;-0.30;99.90
24450;DHT22;13349;50.984;5.822;2023-04-03T03:08:35;-0.30;99.90
24450;DHT22;13349;50.984;5.822;2023-04-03T03:11:02;-0.30;99.90
24450;DHT22;13349;50.984;5.822;2023-04-03T03:13:29;-0.30;99.90
24450;DHT22;13349;50.984;5.822;2023-04-03T03:15:57;-0.30;99.90
24450;DHT22;13349;50.984;5.822;2023-04-03T03:18:24;-0.30;99.90
24450;DHT22;13349;50.984;5.822;2023-04-03T03:20:51;-0.40;99.90
24450;DHT22;13349;50.984;5.822;2023-04-03T03:23:18;-0.40;99.90
24450;DHT22;13349;50.984;5.822;2023-04-03T03:25:45;-0.40;99.90
24450;DHT22;13349;50.984;5.822;2023-04-03T03:28:12;-0.40;99.90
24450;DHT22;13349;50.984;5.822;2023-04-03T03:30:39;-0.50;99.90
24450;DHT22;13349;50.984;5.822;2023-04-03T03:33:07;-0.60;99.90
24450;DHT22;13349;50.984;5.822;2023-04-03T03:35:34;-0.60;99.90
24450;DHT22;13349;50.984;5.822;2023-04-03T03:38:01;-0.60;99.90
24450;DHT22;13349;50.984;5.822;2023-04-03T03:40:28;-0.60;99.90
24450;DHT22;13349;50.984;5.822;2023-04-03T03:42:55;-0.70;99.90
24450;DHT22;13349;50.984;5.822;2023-04-03T03:45:21;-0.70;99.90
24450;DHT22;13349;50.984;5.822;2023-04-03T03:47:48;-0.70;99.90
24450;DHT22;13349;50.984;5.822;2023-04-03T03:50:17;-0.80;99.90
24450;DHT22;13349;50.984;5.822;2023-04-03T03:52:44;-0.80;99.90
24450;DHT22;13349;50.984;5.822;2023-04-03T03:55:11;-0.90;99.90
24450;DHT22;13349;50.984;5.822;2023-04-03T03:57:38;-0.90;99.90
24450;DHT22;13349;50.984;5.822;2023-04-03T04:00:05;-0.80;99.90
24450;DHT22;13349;50.984;5.822;2023-04-03T04:02:34;-0.80;99.90
24450;DHT22;13349;50.984;5.822;2023-04-03T04:05:01;-0.90;99.90
24450;DHT22;13349;50.984;5.822;2023-04-03T04:07:29;-0.90;99.90
24450;DHT22;13349;50.984;5.822;2023-04-03T04:09:56;-0.90;99.90
24450;DHT22;13349;50.984;5.822;2023-04-03T04:12:23;-0.90;99.90
24450;DHT22;13349;50.984;5.822;2023-04-03T04:14:50;-0.90;99.90
24450;DHT22;13349;50.984;5.822;2023-04-03T04:17:17;-0.90;99.90
24450;DHT22;13349;50.984;5.822;2023-04-03T04:19:44;-0.90;99.90
24450;DHT22;13349;50.984;5.822;2023-04-03T04:22:10;-0.90;99.90
24450;DHT22;13349;50.984;5.822;2023-04-03T04:24:39;-1.00;99.90
24450;DHT22;13349;50.984;5.822;2023-04-03T04:27:05;-1.00;99.90
24450;DHT22;13349;50.984;5.822;2023-04-03T04:29:32;-1.00;99.90
24450;DHT22;13349;50.984;5.822;2023-04-03T04:32:01;-0.90;99.90
24450;DHT22;13349;50.984;5.822;2023-04-03T04:34:29;-0.90;99.90
24450;DHT22;13349;50.984;5.822;2023-04-03T04:36:56;-1.00;99.90
24450;DHT22;13349;50.984;5.822;2023-04-03T04:39:23;-1.00;99.90
24450;DHT22;13349;50.984;5.822;2023-04-03T04:41:51;-0.90;99.90
24450;DHT22;13349;50.984;5.822;2023-04-03T04:44:18;-0.90;99.90
24450;DHT22;13349;50.984;5.822;2023-04-03T04:46:45;-0.90;99.90
24450;DHT22;13349;50.984;5.822;2023-04-03T04:49:12;-0.90;99.90
24450;DHT22;13349;50.984;5.822;2023-04-03T04:51:39;-1.00;99.90
24450;DHT22;13349;50.984;5.822;2023-04-03T04:54:06;-0.90;99.90
24450;DHT22;13349;50.984;5.822;2023-04-03T04:56:33;-0.70;99.90
24450;DHT22;13349;50.984;5.822;2023-04-03T04:59:01;-0.70;99.90
24450;DHT22;13349;50.984;5.822;2023-04-03T05:01:28;-0.80;99.90
24450;DHT22;13349;50.984;5.822;2023-04-03T05:03:55;-0.80;99.90
24450;DHT22;13349;50.984;5.822;2023-04-03T05:06:22;-0.90;99.90
24450;DHT22;13349;50.984;5.822;2023-04-03T05:08:49;-0.90;99.90
24450;DHT22;13349;50.984;5.822;2023-04-03T05:11:16;-0.90;99.90
24450;DHT22;13349;50.984;5.822;2023-04-03T05:13:43;-0.90;99.90
24450;DHT22;13349;50.984;5.822;2023-04-03T05:16:11;-0.80;99.90
24450;DHT22;13349;50.984;5.822;2023-04-03T05:18:38;-0.80;99.90
24450;DHT22;13349;50.984;5.822;2023-04-03T05:21:05;-0.80;99.90
24450;DHT22;13349;50.984;5.822;2023-04-03T05:23:32;-0.70;99.90
24450;DHT22;13349;50.984;5.822;2023-04-03T05:25:59;-0.50;99.90
24450;DHT22;13349;50.984;5.822;2023-04-03T05:28:25;-0.40;99.90
24450;DHT22;13349;50.984;5.822;2023-04-03T05:30:53;-0.30;99.90
24450;DHT22;13349;50.984;5.822;2023-04-03T05:33:22;-0.10;99.90
24450;DHT22;13349;50.984;5.822;2023-04-03T05:35:49;0.00;99.90
24450;DHT22;13349;50.984;5.822;2023-04-03T05:38:16;0.10;99.90
24450;DHT22;13349;50.984;5.822;2023-04-03T05:40:43;0.40;99.90
24450;DHT22;13349;50.984;5.822;2023-04-03T05:43:09;0.80;99.90
24450;DHT22;13349;50.984;5.822;2023-04-03T05:45:36;1.10;99.90
24450;DHT22;13349;50.984;5.822;2023-04-03T05:48:03;1.40;99.90
24450;DHT22;13349;50.984;5.822;2023-04-03T05:50:31;1.70;99.90
24450;DHT22;13349;50.984;5.822;2023-04-03T05:52:58;1.90;99.90
24450;DHT22;13349;50.984;5.822;2023-04-03T05:55:25;2.10;99.90
24450;DHT22;13349;50.984;5.822;2023-04-03T05:57:52;2.40;99.90
24450;DHT22;13349;50.984;5.822;2023-04-03T06:00:19;2.50;99.90
24450;DHT22;13349;50.984;5.822;2023-04-03T06:02:46;2.70;99.90
24450;DHT22;13349;50.984;5.822;2023-04-03T06:05:13;3.00;99.90
24450;DHT22;13349;50.984;5.822;2023-04-03T06:07:41;3.10;99.90
24450;DHT22;13349;50.984;5.822;2023-04-03T06:10:10;3.20;99.90
24450;DHT22;13349;50.984;5.822;2023-04-03T06:12:37;3.40;99.90
24450;DHT22;13349;50.984;5.822;2023-04-03T06:15:05;3.30;99.90
24450;DHT22;13349;50.984;5.822;2023-04-03T06:17:33;3.30;99.90
24450;DHT22;13349;50.984;5.822;2023-04-03T06:20:00;3.20;99.90
24450;DHT22;13349;50.984;5.822;2023-04-03T06:22:27;3.10;99.90
24450;DHT22;13349;50.984;5.822;2023-04-03T06:24:56;3.30;99.90
24450;DHT22;13349;50.984;5.822;2023-04-03T06:27:23;3.40;99.90
24450;DHT22;13349;50.984;5.822;2023-04-03T06:29:50;3.40;99.90
24450;DHT22;13349;50.984;5.822;2023-04-03T06:32:17;3.30;99.90
24450;DHT22;13349;50.984;5.822;2023-04-03T06:34:44;3.20;99.90
24450;DHT22;13349;50.984;5.822;2023-04-03T06:37:12;3.20;99.90
24450;DHT22;13349;50.984;5.822;2023-04-03T06:39:41;3.30;99.90
24450;DHT22;13349;50.984;5.822;2023-04-03T06:42:10;3.20;99.90
24450;DHT22;13349;50.984;5.822;2023-04-03T06:44:36;3.40;99.90
24450;DHT22;13349;50.984;5.822;2023-04-03T06:47:03;3.50;99.90
24450;DHT22;13349;50.984;5.822;2023-04-03T06:49:31;3.70;99.90
24450;DHT22;13349;50.984;5.822;2023-04-03T06:51:58;3.60;99.90
24450;DHT22;13349;50.984;5.822;2023-04-03T06:54:25;3.60;99.90
24450;DHT22;13349;50.984;5.822;2023-04-03T06:56:52;3.50;1.00
24450;DHT22;13349;50.984;5.822;2023-04-03T06:59:20;3.40;1.00
24450;DHT22;13349;50.984;5.822;2023-04-03T07:01:47;3.40;99.90
24450;DHT22;13349;50.984;5.822;2023-04-03T07:04:14;3.50;99.90
24450;DHT22;13349;50.984;5.822;2023-04-03T07:06:41;3.40;1.00
24450;DHT22;13349;50.984;5.822;2023-04-03T07:09:08;3.40;99.90
24450;DHT22;13349;50.984;5.822;2023-04-03T07:11:36;3.40;1.00
24450;DHT22;13349;50.984;5.822;2023-04-03T07:14:03;3.40;99.90
24450;DHT22;13349;50.984;5.822;2023-04-03T07:16:33;3.40;99.90
24450;DHT22;13349;50.984;5.822;2023-04-03T07:19:00;3.50;1.00
24450;DHT22;13349;50.984;5.822;2023-04-03T07:21:27;3.40;1.00
24450;DHT22;13349;50.984;5.822;2023-04-03T07:23:54;3.50;1.00
24450;DHT22;13349;50.984;5.822;2023-04-03T07:26:21;3.50;99.90
24450;DHT22;13349;50.984;5.822;2023-04-03T07:28:48;3.40;1.00
24450;DHT22;13349;50.984;5.822;2023-04-03T07:31:16;3.50;1.00
24450;DHT22;13349;50.984;5.822;2023-04-03T07:33:45;3.70;1.00
24450;DHT22;13349;50.984;5.822;2023-04-03T07:36:14;3.70;1.00
24450;DHT22;13349;50.984;5.822;2023-04-03T07:38:41;3.70;99.90
24450;DHT22;13349;50.984;5.822;2023-04-03T07:41:10;3.70;99.90
24450;DHT22;13349;50.984;5.822;2023-04-03T07:43:37;3.70;21.30
24450;DHT22;13349;50.984;5.822;2023-04-03T07:46:04;3.80;1.00
24450;DHT22;13349;50.984;5.822;2023-04-03T07:48:31;3.80;1.00
24450;DHT22;13349;50.984;5.822;2023-04-03T07:51:01;3.90;1.00
24450;DHT22;13349;50.984;5.822;2023-04-03T07:53:29;4.10;1.00
24450;DHT22;13349;50.984;5.822;2023-04-03T07:55:56;4.10;1.00
24450;DHT22;13349;50.984;5.822;2023-04-03T07:58:23;4.00;99.90
24450;DHT22;13349;50.984;5.822;2023-04-03T08:00:51;4.20;99.90
24450;DHT22;13349;50.984;5.822;2023-04-03T08:03:18;4.50;99.90
24450;DHT22;13349;50.984;5.822;2023-04-03T08:05:46;4.60;99.80
24450;DHT22;13349;50.984;5.822;2023-04-03T08:08:15;4.80;68.10
24450;DHT22;13349;50.984;5.822;2023-04-03T08:10:42;4.80;1.00
24450;DHT22;13349;50.984;5.822;2023-04-03T08:13:09;4.80;1.00
24450;DHT22;13349;50.984;5.822;2023-04-03T08:15:36;4.80;1.00
24450;DHT22;13349;50.984;5.822;2023-04-03T08:18:03;5.00;1.00
24450;DHT22;13349;50.984;5.822;2023-04-03T08:20:30;5.30;1.00
24450;DHT22;13349;50.984;5.822;2023-04-03T08:22:57;5.60;1.00
24450;DHT22;13349;50.984;5.822;2023-04-03T08:25:26;5.80;99.90
24450;DHT22;13349;50.984;5.822;2023-04-03T08:27:54;5.90;99.90
24450;DHT22;13349;50.984;5.822;2023-04-03T08:30:21;5.80;99.90
24450;DHT22;13349;50.984;5.822;2023-04-03T08:32:48;6.20;99.90
24450;DHT22;13349;50.984;5.822;2023-04-03T08:35:15;6.30;33.10
24450;DHT22;13349;50.984;5.822;2023-04-03T08:37:42;6.40;1.00
24450;DHT22;13349;50.984;5.822;2023-04-03T08:40:12;6.70;1.00
24450;DHT22;13349;50.984;5.822;2023-04-03T08:42:43;6.70;1.00
24450;DHT22;13349;50.984;5.822;2023-04-03T08:45:12;6.60;1.00
24450;DHT22;13349;50.984;5.822;2023-04-03T08:47:40;6.90;1.00
24450;DHT22;13349;50.984;5.822;2023-04-03T08:50:11;6.90;1.00
24450;DHT22;13349;50.984;5.822;2023-04-03T08:52:39;6.70;1.00
24450;DHT22;13349;50.984;5.822;2023-04-03T08:55:20;6.60;1.00
24450;DHT22;13349;50.984;5.822;2023-04-03T08:57:50;6.70;1.00
24450;DHT22;13349;50.984;5.822;2023-04-03T09:00:19;6.50;99.90
24450;DHT22;13349;50.984;5.822;2023-04-03T09:02:46;6.50;99.90
24450;DHT22;13349;50.984;5.822;2023-04-03T09:05:14;6.50;99.90
24450;DHT22;13349;50.984;5.822;2023-04-03T09:07:42;6.80;99.90
24450;DHT22;13349;50.984;5.822;2023-04-03T09:10:10;6.80;99.90
24450;DHT22;13349;50.984;5.822;2023-04-03T09:12:39;6.90;99.90
24450;DHT22;13349;50.984;5.822;2023-04-03T09:15:13;7.10;99.90
24450;DHT22;13349;50.984;5.822;2023-04-03T09:17:42;7.10;99.90
24450;DHT22;13349;50.984;5.822;2023-04-03T09:20:16;7.30;99.90
24450;DHT22;13349;50.984;5.822;2023-04-03T09:22:45;7.40;99.90
24450;DHT22;13349;50.984;5.822;2023-04-03T09:25:14;7.50;99.90
24450;DHT22;13349;50.984;5.822;2023-04-03T09:27:42;7.70;99.90
24450;DHT22;13349;50.984;5.822;2023-04-03T09:30:14;7.80;49.30
24450;DHT22;13349;50.984;5.822;2023-04-03T09:32:41;7.90;10.80
24450;DHT22;13349;50.984;5.822;2023-04-03T09:35:16;8.50;1.00
24450;DHT22;13349;50.984;5.822;2023-04-03T09:37:44;8.90;1.00
24450;DHT22;13349;50.984;5.822;2023-04-03T09:40:28;8.70;1.00
24450;DHT22;13349;50.984;5.822;2023-04-03T09:42:56;8.90;1.00
24450;DHT22;13349;50.984;5.822;2023-04-03T09:45:26;9.20;1.00
24450;DHT22;13349;50.984;5.822;2023-04-03T09:48:04;9.30;1.00
24450;DHT22;13349;50.984;5.822;2023-04-03T09:50:32;8.80;1.00
24450;DHT22;13349;50.984;5.822;2023-04-03T09:52:59;9.30;1.00
24450;DHT22;13349;50.984;5.822;2023-04-03T09:55:30;9.50;1.00
24450;DHT22;13349;50.984;5.822;2023-04-03T09:57:58;9.80;1.00
24450;DHT22;13349;50.984;5.822;2023-04-03T10:00:27;9.60;1.00
24450;DHT22;13349;50.984;5.822;2023-04-03T10:02:55;9.40;1.00
24450;DHT22;13349;50.984;5.822;2023-04-03T10:05:26;9.30;1.00
24450;DHT22;13349;50.984;5.822;2023-04-03T10:08:03;9.50;1.00
24450;DHT22;13349;50.984;5.822;2023-04-03T10:10:33;9.70;1.00
24450;DHT22;13349;50.984;5.822;2023-04-03T10:13:04;9.70;1.00
24450;DHT22;13349;50.984;5.822;2023-04-03T10:15:32;10.00;1.00
24450;DHT22;13349;50.984;5.822;2023-04-03T10:18:02;10.00;1.00
24450;DHT22;13349;50.984;5.822;2023-04-03T10:20:32;9.90;1.00
24450;DHT22;13349;50.984;5.822;2023-04-03T10:23:01;10.00;1.00
24450;DHT22;13349;50.984;5.822;2023-04-03T10:25:30;10.00;1.00
24450;DHT22;13349;50.984;5.822;2023-04-03T10:27:59;10.00;1.00
24450;DHT22;13349;50.984;5.822;2023-04-03T10:30:34;10.10;1.00
24450;DHT22;13349;50.984;5.822;2023-04-03T10:33:08;9.80;1.00
24450;DHT22;13349;50.984;5.822;2023-04-03T10:35:43;10.00;1.00
24450;DHT22;13349;50.984;5.822;2023-04-03T10:38:14;10.20;1.00
24450;DHT22;13349;50.984;5.822;2023-04-03T10:40:45;10.40;1.00
24450;DHT22;13349;50.984;5.822;2023-04-03T10:43:15;10.40;1.00
24450;DHT22;13349;50.984;5.822;2023-04-03T10:45:49;10.10;1.00
24450;DHT22;13349;50.984;5.822;2023-04-03T10:48:18;10.00;1.00
24450;DHT22;13349;50.984;5.822;2023-04-03T10:50:51;10.00;1.00
24450;DHT22;13349;50.984;5.822;2023-04-03T10:53:20;10.10;1.00
24450;DHT22;13349;50.984;5.822;2023-04-03T10:55:53;9.90;1.00
24450;DHT22;13349;50.984;5.822;2023-04-03T10:58:25;10.30;1.00
24450;DHT22;13349;50.984;5.822;2023-04-03T11:00:54;10.20;1.00
24450;DHT22;13349;50.984;5.822;2023-04-03T11:03:26;10.00;1.00
24450;DHT22;13349;50.984;5.822;2023-04-03T11:05:56;9.90;1.00
24450;DHT22;13349;50.984;5.822;2023-04-03T11:08:26;10.00;1.00
24450;DHT22;13349;50.984;5.822;2023-04-03T11:10:55;10.40;1.00
24450;DHT22;13349;50.984;5.822;2023-04-03T11:13:24;10.40;1.00
24450;DHT22;13349;50.984;5.822;2023-04-03T11:15:54;10.50;1.00
24450;DHT22;13349;50.984;5.822;2023-04-03T11:18:25;10.60;1.00
24450;DHT22;13349;50.984;5.822;2023-04-03T11:20:56;10.60;1.00
24450;DHT22;13349;50.984;5.822;2023-04-03T11:23:26;11.30;1.00
24450;DHT22;13349;50.984;5.822;2023-04-03T11:25:58;11.00;1.00
24450;DHT22;13349;50.984;5.822;2023-04-03T11:28:26;10.80;1.00
24450;DHT22;13349;50.984;5.822;2023-04-03T11:30:56;10.80;1.00
24450;DHT22;13349;50.984;5.822;2023-04-03T11:33:36;11.30;1.00
24450;DHT22;13349;50.984;5.822;2023-04-03T11:36:05;11.10;1.00
24450;DHT22;13349;50.984;5.822;2023-04-03T11:38:35;11.00;1.00
24450;DHT22;13349;50.984;5.822;2023-04-03T11:41:05;11.30;1.00
24450;DHT22;13349;50.984;5.822;2023-04-03T11:43:32;11.20;1.00
24450;DHT22;13349;50.984;5.822;2023-04-03T11:46:02;10.90;1.00
24450;DHT22;13349;50.984;5.822;2023-04-03T11:48:43;11.00;1.00
24450;DHT22;13349;50.984;5.822;2023-04-03T11:53:56;11.50;1.00
24450;DHT22;13349;50.984;5.822;2023-04-03T11:56:43;11.20;1.00
24450;DHT22;13349;50.984;5.822;2023-04-03T11:59:23;10.90;1.00
24450;DHT22;13349;50.984;5.822;2023-04-03T12:01:52;11.10;1.00
24450;DHT22;13349;50.984;5.822;2023-04-03T12:04:20;11.20;1.00
24450;DHT22;13349;50.984;5.822;2023-04-03T12:12:30;11.10;1.00
24450;DHT22;13349;50.984;5.822;2023-04-03T12:15:18;11.20;1.00
24450;DHT22;13349;50.984;5.822;2023-04-03T12:17:47;11.00;1.00
24450;DHT22;13349;50.984;5.822;2023-04-03T12:23:08;10.80;1.00
24450;DHT22;13349;50.984;5.822;2023-04-03T12:25:50;10.70;1.00
24450;DHT22;13349;50.984;5.822;2023-04-03T12:28:18;10.70;1.00
24450;DHT22;13349;50.984;5.822;2023-04-03T12:30:45;10.40;1.00
24450;DHT22;13349;50.984;5.822;2023-04-03T12:33:20;10.20;1.00
24450;DHT22;13349;50.984;5.822;2023-04-03T12:35:54;10.20;1.00
24450;DHT22;13349;50.984;5.822;2023-04-03T12:38:30;10.70;1.00
24450;DHT22;13349;50.984;5.822;2023-04-03T12:41:04;10.90;1.00
24450;DHT22;13349;50.984;5.822;2023-04-03T12:43:40;11.00;1.00
24450;DHT22;13349;50.984;5.822;2023-04-03T12:46:11;11.10;1.00
24450;DHT22;13349;50.984;5.822;2023-04-03T12:48:48;11.30;1.00
24450;DHT22;13349;50.984;5.822;2023-04-03T12:51:17;10.80;1.00
24450;DHT22;13349;50.984;5.822;2023-04-03T12:53:45;11.00;1.00
24450;DHT22;13349;50.984;5.822;2023-04-03T12:56:18;10.70;1.00
24450;DHT22;13349;50.984;5.822;2023-04-03T12:58:46;10.50;1.00
24450;DHT22;13349;50.984;5.822;2023-04-03T13:01:13;10.80;1.00
24450;DHT22;13349;50.984;5.822;2023-04-03T13:03:43;11.00;1.00
24450;DHT22;13349;50.984;5.822;2023-04-03T13:06:13;11.00;1.00
24450;DHT22;13349;50.984;5.822;2023-04-03T13:08:48;11.00;1.00
24450;DHT22;13349;50.984;5.822;2023-04-03T13:11:15;11.30;1.00
24450;DHT22;13349;50.984;5.822;2023-04-03T13:13:53;11.50;1.00
24450;DHT22;13349;50.984;5.822;2023-04-03T13:16:20;11.60;1.00
24450;DHT22;13349;50.984;5.822;2023-04-03T13:18:50;11.50;1.00
24450;DHT22;13349;50.984;5.822;2023-04-03T13:21:18;11.50;1.00
24450;DHT22;13349;50.984;5.822;2023-04-03T13:23:47;11.60;1.00
24450;DHT22;13349;50.984;5.822;2023-04-03T13:26:15;11.50;1.00
24450;DHT22;13349;50.984;5.822;2023-04-03T13:28:43;11.90;1.00
24450;DHT22;13349;50.984;5.822;2023-04-03T13:31:17;12.10;1.00
24450;DHT22;13349;50.984;5.822;2023-04-03T13:33:52;11.60;1.00
24450;DHT22;13349;50.984;5.822;2023-04-03T13:36:21;11.20;1.00
24450;DHT22;13349;50.984;5.822;2023-04-03T13:38:57;11.00;1.00
24450;DHT22;13349;50.984;5.822;2023-04-03T13:41:25;10.90;1.00
24450;DHT22;13349;50.984;5.822;2023-04-03T13:43:52;11.00;1.00
24450;DHT22;13349;50.984;5.822;2023-04-03T13:46:23;11.00;1.00
24450;DHT22;13349;50.984;5.822;2023-04-03T13:48:52;11.10;1.00
24450;DHT22;13349;50.984;5.822;2023-04-03T13:51:22;11.50;1.00
24450;DHT22;13349;50.984;5.822;2023-04-03T13:53:51;11.30;1.00
24450;DHT22;13349;50.984;5.822;2023-04-03T13:56:24;11.30;1.00
24450;DHT22;13349;50.984;5.822;2023-04-03T13:58:56;11.50;1.00
24450;DHT22;13349;50.984;5.822;2023-04-03T14:01:23;11.60;1.00
24450;DHT22;13349;50.984;5.822;2023-04-03T14:03:52;11.60;1.00
24450;DHT22;13349;50.984;5.822;2023-04-03T14:06:19;11.70;1.00
24450;DHT22;13349;50.984;5.822;2023-04-03T14:08:48;11.60;1.00
24450;DHT22;13349;50.984;5.822;2023-04-03T14:11:16;11.60;1.00
24450;DHT22;13349;50.984;5.822;2023-04-03T14:13:44;11.80;1.00
24450;DHT22;13349;50.984;5.822;2023-04-03T14:16:12;11.90;1.00
24450;DHT22;13349;50.984;5.822;2023-04-03T14:18:40;12.10;1.00
24450;DHT22;13349;50.984;5.822;2023-04-03T14:21:07;11.80;1.00
24450;DHT22;13349;50.984;5.822;2023-04-03T14:23:34;11.60;1.00
24450;DHT22;13349;50.984;5.822;2023-04-03T14:26:02;11.70;1.00
24450;DHT22;13349;50.984;5.822;2023-04-03T14:28:29;11.90;1.00
24450;DHT22;13349;50.984;5.822;2023-04-03T14:30:57;11.90;1.00
24450;DHT22;13349;50.984;5.822;2023-04-03T14:33:24;12.20;1.00
24450;DHT22;13349;50.984;5.822;2023-04-03T14:35:53;12.10;1.00
24450;DHT22;13349;50.984;5.822;2023-04-03T14:38:22;12.10;1.00
24450;DHT22;13349;50.984;5.822;2023-04-03T14:40:50;12.00;1.00
24450;DHT22;13349;50.984;5.822;2023-04-03T14:43:18;12.50;1.00
24450;DHT22;13349;50.984;5.822;2023-04-03T14:45:45;12.80;1.00
24450;DHT22;13349;50.984;5.822;2023-04-03T14:48:15;12.50;1.00
24450;DHT22;13349;50.984;5.822;2023-04-03T14:50:43;12.70;1.00
24450;DHT22;13349;50.984;5.822;2023-04-03T14:53:10;12.70;1.00
24450;DHT22;13349;50.984;5.822;2023-04-03T14:55:38;12.60;1.00
24450;DHT22;13349;50.984;5.822;2023-04-03T14:58:05;12.30;1.00
24450;DHT22;13349;50.984;5.822;2023-04-03T15:00:33;11.90;1.00
24450;DHT22;13349;50.984;5.822;2023-04-03T15:03:00;11.90;1.00
24450;DHT22;13349;50.984;5.822;2023-04-03T15:05:27;12.20;1.00
24450;DHT22;13349;50.984;5.822;2023-04-03T15:07:54;12.10;1.00
24450;DHT22;13349;50.984;5.822;2023-04-03T15:10:23;12.20;1.00
24450;DHT22;13349;50.984;5.822;2023-04-03T15:12:50;12.20;1.00
24450;DHT22;13349;50.984;5.822;2023-04-03T15:15:18;11.90;1.00
24450;DHT22;13349;50.984;5.822;2023-04-03T15:17:48;11.90;1.00
24450;DHT22;13349;50.984;5.822;2023-04-03T15:20:17;11.80;1.00
24450;DHT22;13349;50.984;5.822;2023-04-03T15:22:44;11.90;1.00
24450;DHT22;13349;50.984;5.822;2023-04-03T15:25:11;12.10;1.00
24450;DHT22;13349;50.984;5.822;2023-04-03T15:27:38;12.00;1.00
24450;DHT22;13349;50.984;5.822;2023-04-03T15:30:07;11.70;1.00
24450;DHT22;13349;50.984;5.822;2023-04-03T15:32:34;11.90;1.00
24450;DHT22;13349;50.984;5.822;2023-04-03T15:35:03;11.60;1.00
24450;DHT22;13349;50.984;5.822;2023-04-03T15:37:30;11.50;1.00
24450;DHT22;13349;50.984;5.822;2023-04-03T15:39:56;11.80;1.00
24450;DHT22;13349;50.984;5.822;2023-04-03T15:42:23;11.60;1.00
24450;DHT22;13349;50.984;5.822;2023-04-03T15:44:50;11.70;1.00
24450;DHT22;13349;50.984;5.822;2023-04-03T15:47:17;11.70;1.00
24450;DHT22;13349;50.984;5.822;2023-04-03T15:49:44;11.60;1.00
24450;DHT22;13349;50.984;5.822;2023-04-03T15:52:12;11.50;1.00
24450;DHT22;13349;50.984;5.822;2023-04-03T15:54:39;11.20;1.00
24450;DHT22;13349;50.984;5.822;2023-04-03T15:57:06;11.20;1.00
24450;DHT22;13349;50.984;5.822;2023-04-03T15:59:33;11.50;1.00
24450;DHT22;13349;50.984;5.822;2023-04-03T16:02:00;11.40;1.00
24450;DHT22;13349;50.984;5.822;2023-04-03T16:04:28;11.40;1.00
24450;DHT22;13349;50.984;5.822;2023-04-03T16:06:55;11.30;1.00